createdAt,value
2019-01-06T00:04:17.028Z,4.20
2019-01-06T00:09:10.678Z,4.20
2019-01-06T00:14:02.176Z,4.30
2019-01-06T00:18:53.464Z,4.50
2019-01-06T00:23:47.114Z,4.50
2019-01-06T00:28:40.788Z,4.50
2019-01-06T00:33:32.210Z,4.60
2019-01-06T00:38:25.886Z,4.50
2019-01-06T00:43:19.555Z,4.50
2019-01-06T00:48:10.951Z,4.50
2019-01-06T00:53:02.384Z,4.50
2019-01-06T00:57:58.274Z,4.50
2019-01-06T01:02:56.468Z,4.60
2019-01-06T01:07:54.675Z,4.60
2019-01-06T01:12:50.698Z,4.60
2019-01-06T01:17:48.889Z,4.60
2019-01-06T01:27:43.000Z,4.50
2019-01-06T01:32:34.419Z,4.50
2019-01-06T01:37:25.837Z,4.50
2019-01-06T01:42:19.480Z,4.50
2019-01-06T01:52:13.679Z,4.40
2019-01-06T01:57:05.086Z,4.40
2019-01-06T02:01:58.700Z,4.40
2019-01-06T02:06:50.158Z,4.40
2019-01-06T02:11:41.562Z,4.40
2019-01-06T02:16:37.451Z,4.50
2019-01-06T02:21:28.925Z,4.50
2019-01-06T02:26:24.803Z,4.50
2019-01-06T02:36:18.901Z,4.50
2019-01-06T02:41:19.392Z,4.50
2019-01-06T02:46:15.294Z,4.50
2019-01-06T02:51:18.053Z,4.50
2019-01-06T02:56:09.457Z,4.50
2019-01-06T03:01:00.923Z,4.60
2019-01-06T03:05:52.239Z,4.60
2019-01-06T03:10:45.870Z,4.60
2019-01-06T03:15:44.096Z,4.60
2019-01-06T03:20:42.306Z,4.60
2019-01-06T03:25:38.200Z,4.50
2019-01-06T03:30:29.650Z,4.60
2019-01-06T03:35:21.077Z,4.60
2019-01-06T03:40:16.966Z,4.50
2019-01-06T03:45:12.857Z,4.50
2019-01-06T03:50:11.134Z,4.50
2019-01-06T04:00:05.196Z,4.50
2019-01-06T04:05:07.910Z,4.50
2019-01-06T04:10:01.603Z,4.50
2019-01-06T04:14:59.840Z,4.40
2019-01-06T04:19:55.989Z,4.40
2019-01-06T04:24:53.924Z,4.40
2019-01-06T04:34:50.313Z,4.40
2019-01-06T04:39:58.287Z,4.30
2019-01-06T04:44:56.489Z,4.30
2019-01-06T04:49:54.738Z,4.30
2019-01-06T04:54:50.641Z,4.30
2019-01-06T04:59:42.107Z,4.30
2019-01-06T05:04:33.453Z,4.30
2019-01-06T05:09:29.406Z,4.30
2019-01-06T05:14:25.351Z,4.30
2019-01-06T05:19:23.515Z,4.30
2019-01-06T05:24:21.739Z,4.30
2019-01-06T05:29:19.973Z,4.20
2019-01-06T05:39:14.152Z,4.20
2019-01-06T05:44:10.061Z,4.20
2019-01-06T05:49:08.386Z,4.20
2019-01-06T05:54:06.659Z,4.20
2019-01-06T05:59:02.533Z,4.20
2019-01-06T06:04:00.813Z,4.20
2019-01-06T06:13:54.963Z,4.30
2019-01-06T06:18:53.142Z,4.30
2019-01-06T06:23:49.172Z,4.30
2019-01-06T06:28:47.387Z,4.40
2019-01-06T06:33:45.528Z,4.30
2019-01-06T06:38:43.777Z,4.30
2019-01-06T06:48:37.860Z,4.40
2019-01-06T06:53:36.019Z,4.40
2019-01-06T06:58:34.234Z,4.40
2019-01-06T07:03:36.949Z,4.40
2019-01-06T07:08:30.591Z,4.40
2019-01-06T07:13:26.474Z,4.50
2019-01-06T07:18:17.909Z,4.50
2019-01-06T07:23:13.829Z,4.50
2019-01-06T07:28:07.456Z,4.50
2019-01-06T07:33:01.068Z,4.50
2019-01-06T07:37:59.288Z,4.60
2019-01-06T07:47:55.666Z,4.60
2019-01-06T07:52:53.832Z,4.60
2019-01-06T07:57:49.749Z,4.60
2019-01-06T08:02:47.962Z,4.70
2019-01-06T08:07:48.446Z,4.70
2019-01-06T08:12:42.167Z,4.70
2019-01-06T08:22:38.569Z,4.80
2019-01-06T08:27:36.772Z,4.80
2019-01-06T08:32:34.957Z,4.80
2019-01-06T08:37:33.124Z,4.80
2019-01-06T08:42:33.600Z,4.80
2019-01-06T08:47:43.261Z,4.90
2019-01-06T08:52:41.425Z,4.90
2019-01-06T08:57:39.684Z,4.90
2019-01-06T09:07:33.726Z,4.90
2019-01-06T09:12:45.220Z,4.90
2019-01-06T09:17:30.149Z,5.00
2019-01-06T09:22:28.303Z,5.00
2019-01-06T09:27:26.473Z,5.10
2019-01-06T09:32:22.462Z,5.20
2019-01-06T09:42:18.781Z,5.30
2019-01-06T09:47:19.292Z,5.30
2019-01-06T09:52:12.911Z,5.30
2019-01-06T09:57:04.309Z,5.40
2019-01-06T10:01:55.724Z,5.40
2019-01-06T10:06:49.302Z,5.50
2019-01-06T10:11:40.719Z,5.60
2019-01-06T10:16:32.138Z,5.70
2019-01-06T10:21:27.941Z,5.70
2019-01-06T10:31:15.350Z,5.70
2019-01-06T10:36:22.640Z,5.70
2019-01-06T10:41:20.855Z,5.60
2019-01-06T10:46:16.695Z,5.60
2019-01-06T10:51:12.791Z,5.60
2019-01-06T10:56:17.756Z,5.60
2019-01-06T11:01:09.226Z,5.50
2019-01-06T11:06:05.025Z,5.60
2019-01-06T11:11:03.233Z,5.60
2019-01-06T11:16:01.441Z,5.70
2019-01-06T11:20:57.374Z,5.80
2019-01-06T11:25:55.564Z,5.80
2019-01-06T11:30:53.766Z,5.70
2019-01-06T11:40:50.120Z,5.70
2019-01-06T11:45:48.337Z,5.80
2019-01-06T11:50:46.496Z,5.80
2019-01-06T11:55:44.718Z,5.80
2019-01-06T12:00:38.345Z,5.80
2019-01-06T12:05:36.584Z,6.00
2019-01-06T12:15:33.004Z,5.90
2019-01-06T12:20:31.182Z,6.00
2019-01-06T12:25:31.649Z,5.90
2019-01-06T12:30:32.080Z,5.80
2019-01-06T12:35:23.473Z,5.80
2019-01-06T12:40:21.601Z,5.90
2019-01-06T12:50:18.013Z,5.90
2019-01-06T12:55:18.462Z,5.90
2019-01-06T13:00:12.104Z,5.90
2019-01-06T13:05:10.297Z,5.90
2019-01-06T13:10:13.028Z,5.90
2019-01-06T13:15:06.658Z,5.90
2019-01-06T13:20:04.921Z,5.90
2019-01-06T13:25:00.806Z,5.80
2019-01-06T13:29:58.991Z,5.80
2019-01-06T13:34:57.292Z,5.80
2019-01-06T13:39:57.971Z,5.90
2019-01-06T13:44:51.615Z,5.90
2019-01-06T13:49:47.595Z,5.80
2019-01-06T14:04:46.655Z,5.70
2019-01-06T14:09:40.318Z,5.70
2019-01-06T14:14:38.488Z,5.70
2019-01-06T14:19:36.756Z,5.80
2019-01-06T14:24:39.485Z,5.90
2019-01-06T14:29:30.900Z,5.90
2019-01-06T14:44:41.370Z,5.80
2019-01-06T14:49:44.025Z,5.70
2019-01-06T14:54:42.143Z,5.50
2019-01-06T14:59:33.572Z,5.60
2019-01-06T15:04:31.693Z,5.60
2019-01-06T15:09:32.237Z,5.40
2019-01-06T15:14:25.824Z,5.30
2019-01-06T15:24:22.270Z,5.20
2019-01-06T15:29:22.726Z,5.20
2019-01-06T15:34:25.643Z,5.00
2019-01-06T15:39:16.906Z,5.00
2019-01-06T15:44:12.801Z,5.00
2019-01-06T15:54:09.096Z,4.90
2019-01-06T15:59:07.341Z,4.90
2019-01-06T16:04:05.553Z,4.80
2019-01-06T16:09:03.735Z,4.80
2019-01-06T16:13:59.643Z,4.70
2019-01-06T16:18:57.812Z,4.80
2019-01-06T16:33:50.125Z,4.70
2019-01-06T16:38:48.366Z,4.70
2019-01-06T16:43:46.502Z,4.60
2019-01-06T16:48:49.311Z,4.60
2019-01-06T16:53:42.950Z,4.60
2019-01-06T16:58:38.809Z,4.60
2019-01-06T17:08:44.260Z,4.70
2019-01-06T17:13:35.732Z,4.70
2019-01-06T17:18:31.547Z,4.70
2019-01-06T17:23:29.770Z,4.80
2019-01-06T17:28:25.707Z,4.80
2019-01-06T17:33:23.846Z,4.80
2019-01-06T17:38:22.037Z,4.80
2019-01-06T17:43:20.273Z,4.80
2019-01-06T17:48:18.458Z,4.80
2019-01-06T17:53:16.601Z,4.90
2019-01-06T17:58:12.562Z,4.90
2019-01-06T18:03:13.020Z,4.90
2019-01-06T18:08:11.161Z,4.90
2019-01-06T18:18:09.814Z,4.90
2019-01-06T18:23:03.516Z,4.80
2019-01-06T18:28:01.637Z,4.90
2019-01-06T18:32:57.603Z,4.90
2019-01-06T18:37:58.054Z,4.90
2019-01-06T18:42:53.950Z,4.80
2019-01-06T18:52:50.331Z,4.90
2019-01-06T18:57:48.487Z,4.90
2019-01-06T19:02:44.405Z,4.90
2019-01-06T19:07:42.666Z,4.90
2019-01-06T19:12:47.745Z,4.90
2019-01-06T19:17:41.553Z,4.80
2019-01-06T19:27:26.402Z,4.80
2019-01-06T19:32:17.770Z,4.80
2019-01-06T19:37:20.423Z,4.80
2019-01-06T19:42:11.893Z,4.80
2019-01-06T19:52:13.339Z,4.80
2019-01-06T19:57:13.246Z,4.70
2019-01-06T20:02:04.671Z,4.80
2019-01-06T20:07:00.555Z,4.90
2019-01-06T20:11:56.514Z,4.80
2019-01-06T20:16:59.259Z,4.80
2019-01-06T20:21:52.861Z,4.80
2019-01-06T20:26:51.065Z,4.80
2019-01-06T20:31:46.990Z,4.80
2019-01-06T20:36:38.422Z,4.80
2019-01-06T20:41:32.025Z,4.80
2019-01-06T20:46:23.550Z,4.80
2019-01-06T20:51:21.588Z,4.80
2019-01-06T20:56:19.773Z,4.80
2019-01-06T21:01:20.300Z,4.80
2019-01-06T21:06:16.176Z,4.80
2019-01-06T21:11:12.114Z,4.80
2019-01-06T21:16:03.555Z,4.80
2019-01-06T21:20:55.028Z,4.80
2019-01-06T21:25:48.556Z,4.80
2019-01-06T21:30:40.020Z,4.80
2019-01-06T21:35:44.943Z,4.70
2019-01-06T21:45:43.577Z,4.70
2019-01-06T21:50:37.239Z,4.70
2019-01-06T21:55:28.671Z,4.60
2019-01-06T22:00:20.066Z,4.70
2019-01-06T22:05:13.653Z,4.60
2019-01-06T22:10:05.135Z,4.60
2019-01-06T22:14:58.705Z,4.60
2019-01-06T22:19:50.187Z,4.60
2019-01-06T22:24:50.586Z,4.60
2019-01-06T22:29:48.773Z,4.60
2019-01-06T22:34:42.452Z,4.60
2019-01-06T22:39:40.750Z,4.60
2019-01-06T22:44:36.644Z,4.60
2019-01-06T22:49:39.342Z,4.60
2019-01-06T22:54:33.009Z,4.60
2019-01-06T22:59:35.778Z,4.60
2019-01-06T23:04:29.418Z,4.60
2019-01-06T23:09:27.654Z,4.50
2019-01-06T23:14:23.607Z,4.50
2019-01-06T23:19:21.783Z,4.50
2019-01-06T23:24:19.965Z,4.50
2019-01-06T23:29:18.167Z,4.50
2019-01-06T23:34:14.067Z,4.50
2019-01-06T23:39:12.290Z,4.50
2019-01-06T23:44:12.730Z,4.50
2019-01-06T23:49:08.635Z,4.50
2019-01-06T23:54:09.068Z,4.60
2019-01-06T23:59:02.730Z,4.50
